Time;durP1;ratioP1;P1;durP2;ratioP2;P2;SDS_P1;SDS_P2;PMS_P1;PMS_P2;Temp;Humidity;BMP_temperature;BMP_pressure;BME280_temperature;BME280_humidity;BME280_pressure;Samples;Min_cycle;Max_cycle;Signal;HPM_P1;HPM_P2
2022/05/12 00:00:13;;;;;;;1.38;0.98;;;;;;;23.73;39.73;99580.00;5132406;28;20461;-62
2022/05/12 00:02:39;;;;;;;1.27;0.80;;;;;;;23.70;39.74;99578.78;5131743;28;20047;-62
2022/05/12 00:05:06;;;;;;;1.20;0.73;;;;;;;23.71;39.93;99571.19;5131332;28;20055;-62
2022/05/12 00:07:31;;;;;;;1.33;0.80;;;;;;;23.71;39.91;99579.56;5132189;28;20065;-62
2022/05/12 00:09:57;;;;;;;1.17;0.77;;;;;;;23.72;39.87;99579.22;5132021;28;20134;-67
2022/05/12 00:12:23;;;;;;;1.88;0.90;;;;;;;23.70;39.84;99564.00;5132312;28;20054;-67
2022/05/12 00:14:49;;;;;;;0.95;0.70;;;;;;;23.70;40.08;99575.19;5132215;28;20043;-67
2022/05/12 00:17:14;;;;;;;0.93;0.70;;;;;;;23.66;39.94;99580.75;5132138;28;20076;-62
2022/05/12 00:19:39;;;;;;;2.20;1.10;;;;;;;23.69;40.02;99557.63;5132080;28;20175;-62
2022/05/12 00:22:05;;;;;;;2.10;0.98;;;;;;;23.70;39.92;99575.97;5132097;28;20503;-62
2022/05/12 00:24:31;;;;;;;1.35;0.80;;;;;;;23.70;39.89;99580.78;5131759;28;20129;-62
2022/05/12 00:26:56;;;;;;;1.50;0.90;;;;;;;23.69;39.86;99568.00;5095554;28;20428;-62
2022/05/12 00:29:22;;;;;;;1.35;0.90;;;;;;;23.68;39.83;99577.56;5131935;28;20122;-62
2022/05/12 00:31:48;;;;;;;1.80;1.00;;;;;;;23.69;39.98;99577.19;5131998;28;20039;-67
2022/05/12 00:34:16;;;;;;;1.60;0.90;;;;;;;23.67;40.09;99576.78;5130883;27;20062;-66
2022/05/12 00:36:42;;;;;;;1.33;0.90;;;;;;;23.66;39.94;99574.38;5131880;28;20500;-66
2022/05/12 00:39:07;;;;;;;1.40;0.93;;;;;;;23.65;39.94;99575.53;5131911;28;20079;-66
2022/05/12 00:41:33;;;;;;;1.42;0.88;;;;;;;23.62;39.91;99585.50;5131841;28;20134;-66
2022/05/12 00:44:02;;;;;;;1.25;0.93;;;;;;;23.67;39.95;99589.94;5131381;28;20095;-67
2022/05/12 00:46:33;;;;;;;1.40;0.90;;;;;;;23.66;39.87;99583.56;5131427;28;20051;-67
2022/05/12 00:49:22;;;;;;;1.40;0.90;;;;;;;23.68;39.77;99583.16;5131604;28;20047;-67
2022/05/12 00:51:57;;;;;;;1.42;0.98;;;;;;;23.67;39.57;99595.53;5131731;28;20129;-67
2022/05/12 00:54:31;;;;;;;1.08;0.73;;;;;;;23.68;39.70;99589.53;5132023;28;20058;-67
2022/05/12 00:56:59;;;;;;;1.48;0.90;;;;;;;23.67;39.77;99582.38;5131623;28;20035;-67
2022/05/12 00:59:31;;;;;;;1.13;0.70;;;;;;;23.68;39.83;99583.16;5131478;28;20112;-67
2022/05/12 01:01:57;;;;;;;1.60;0.95;;;;;;;23.67;39.84;99582.38;5131640;28;20101;-67
2022/05/12 01:04:24;;;;;;;1.15;0.80;;;;;;;23.67;39.71;99587.16;5131274;28;20505;-67
2022/05/12 01:06:51;;;;;;;2.17;0.93;;;;;;;23.64;39.69;99582.31;5128636;28;20051;-68
2022/05/12 01:09:18;;;;;;;1.27;0.82;;;;;;;23.67;39.83;99582.38;5131106;28;20720;-66
2022/05/12 01:11:44;;;;;;;1.40;0.90;;;;;;;23.66;39.85;99588.34;5117993;28;20625;-66
2022/05/12 01:14:10;;;;;;;1.30;0.90;;;;;;;23.64;39.92;99594.28;5110616;28;20127;-66
2022/05/12 01:16:46;;;;;;;1.40;0.90;;;;;;;23.64;39.80;99599.09;5110105;28;20411;-66
2022/05/12 01:19:19;;;;;;;2.15;1.05;;;;;;;23.64;39.84;99591.50;5110732;28;20032;-62
2022/05/12 01:21:46;;;;;;;1.30;0.70;;;;;;;23.65;39.69;99590.34;5107347;28;20130;-62
2022/05/12 01:24:12;;;;;;;1.60;0.90;;;;;;;23.64;39.62;99596.28;5110479;28;20044;-62
2022/05/12 01:26:38;;;;;;;1.02;0.75;;;;;;;23.62;39.75;99599.47;5110346;28;20043;-62
2022/05/12 01:29:05;;;;;;;1.63;0.98;;;;;;;23.58;39.90;99593.84;5110483;28;20119;-61
2022/05/12 01:31:32;;;;;;;1.55;0.90;;;;;;;23.60;39.86;99599.03;5110413;28;20767;-61
2022/05/12 01:33:58;;;;;;;1.45;0.93;;;;;;;23.59;39.80;99589.88;5110536;28;20047;-61
2022/05/12 01:36:23;;;;;;;1.30;0.90;;;;;;;23.60;39.88;99591.50;5110421;28;20051;-62
2022/05/12 01:38:49;;;;;;;1.65;0.80;;;;;;;23.59;40.05;99597.44;5110251;28;20090;-62
2022/05/12 01:41:15;;;;;;;1.10;0.80;;;;;;;23.58;40.14;99596.66;5110500;28;20043;-62
2022/05/12 01:43:41;;;;;;;1.60;1.10;;;;;;;23.59;39.83;99603.84;5110297;28;20554;-62
2022/05/12 01:46:07;;;;;;;1.13;0.80;;;;;;;23.58;39.80;99612.59;5109812;28;20122;-62
2022/05/12 01:48:33;;;;;;;1.58;0.93;;;;;;;23.56;39.89;99607.38;5110115;28;20044;-62
2022/05/12 01:50:58;;;;;;;1.60;0.90;;;;;;;23.53;39.94;99599.78;5110058;28;20511;-62
2022/05/12 01:53:24;;;;;;;1.42;0.90;;;;;;;23.54;40.02;99611.75;5110149;28;20066;-62
2022/05/12 01:55:49;;;;;;;1.40;0.90;;;;;;;23.52;39.91;99603.78;5110244;28;20131;-62
2022/05/12 01:58:18;;;;;;;1.38;0.80;;;;;;;23.50;40.07;99602.53;5110280;28;20539;-62
2022/05/12 02:00:43;;;;;;;1.17;0.80;;;;;;;23.52;39.83;99608.56;5110099;28;20052;-61
2022/05/12 02:03:09;;;;;;;1.35;0.85;;;;;;;23.50;39.76;99608.94;5110255;28;20042;-62
2022/05/12 02:05:37;;;;;;;1.88;1.00;;;;;;;23.49;39.99;99610.13;5109788;28;20084;-62
2022/05/12 02:08:04;;;;;;;1.48;0.90;;;;;;;23.49;39.91;99621.28;5109657;28;20054;-62
2022/05/12 02:10:37;;;;;;;1.38;0.75;;;;;;;23.48;39.94;99610.53;5109781;28;20552;-62
2022/05/12 02:13:03;;;;;;;1.63;0.95;;;;;;;23.48;40.06;99616.91;5110083;28;20036;-62
2022/05/12 02:15:29;;;;;;;1.40;0.93;;;;;;;23.48;39.99;99621.69;5110020;28;20175;-62
2022/05/12 02:17:54;;;;;;;1.70;1.00;;;;;;;23.47;40.20;99623.69;5109925;28;20051;-62
2022/05/12 02:20:21;;;;;;;1.67;0.98;;;;;;;23.45;39.96;99625.25;5109509;28;20067;-62
2022/05/12 02:22:47;;;;;;;1.45;0.98;;;;;;;23.42;40.26;99626.03;5109640;28;20119;-62
2022/05/12 02:25:13;;;;;;;1.50;0.98;;;;;;;23.43;40.26;99628.44;5109653;28;20507;-62
2022/05/12 02:27:42;;;;;;;1.20;0.90;;;;;;;23.46;40.14;99635.25;5109786;28;20054;-62
2022/05/12 02:30:10;;;;;;;1.48;1.00;;;;;;;23.45;40.22;99633.66;5109523;28;20075;-62
2022/05/12 02:32:35;;;;;;;1.23;0.80;;;;;;;23.43;40.04;99628.44;5109430;28;20043;-62
2022/05/12 02:35:01;;;;;;;1.55;0.90;;;;;;;23.43;40.12;99638.78;5109718;28;20048;-62
2022/05/12 02:37:27;;;;;;;1.92;1.00;;;;;;;23.40;40.23;99629.22;5109485;28;20373;-68
2022/05/12 02:39:53;;;;;;;1.65;0.90;;;;;;;23.40;40.15;99636.78;5109158;28;20491;-67
2022/05/12 02:42:18;;;;;;;1.27;0.90;;;;;;;23.40;39.97;99639.56;5109697;28;20044;-67
2022/05/12 02:44:44;;;;;;;1.60;1.00;;;;;;;23.38;39.86;99634.38;5109340;28;20047;-67
2022/05/12 02:47:09;;;;;;;1.20;0.80;;;;;;;23.40;40.00;99637.59;5109320;28;20519;-67
2022/05/12 02:49:36;;;;;;;2.53;1.00;;;;;;;23.36;39.91;99636.78;5109258;28;20175;-67
2022/05/12 02:52:02;;;;;;;1.27;0.90;;;;;;;23.38;40.02;99631.59;5109294;28;20040;-68
2022/05/12 02:54:28;;;;;;;1.27;0.85;;;;;;;23.33;40.02;99629.94;5109482;28;20044;-67
2022/05/12 02:56:55;;;;;;;1.48;0.90;;;;;;;23.38;39.98;99631.59;5109492;28;20419;-67
2022/05/12 02:59:22;;;;;;;1.25;0.80;;;;;;;23.36;39.88;99633.97;5112253;28;20055;-67
2022/05/12 03:01:48;;;;;;;0.80;0.70;;;;;;;23.34;39.68;99630.75;5112903;28;20050;-61
2022/05/12 03:04:13;;;;;;;1.13;0.80;;;;;;;23.35;39.89;99637.94;5113052;28;20400;-67
2022/05/12 03:06:39;;;;;;;1.20;0.80;;;;;;;23.34;40.05;99639.13;5112615;28;20047;-67
2022/05/12 03:09:05;;;;;;;1.20;0.73;;;;;;;23.36;40.10;99645.16;5112599;28;20043;-67
2022/05/12 03:11:30;;;;;;;1.23;0.80;;;;;;;23.32;40.07;99644.31;5112667;28;20048;-67
2022/05/12 03:13:56;;;;;;;1.55;1.00;;;;;;;23.30;39.90;99641.91;5112683;28;20048;-62
2022/05/12 03:16:22;;;;;;;1.50;0.90;;;;;;;23.29;40.01;99639.50;5112921;28;20450;-67
2022/05/12 03:18:51;;;;;;;2.72;0.90;;;;;;;23.27;40.18;99637.06;5112511;28;20046;-67
2022/05/12 03:21:17;;;;;;;1.38;0.95;;;;;;;23.27;39.89;99637.06;5112430;28;20054;-67
2022/05/12 03:23:44;;;;;;;1.50;0.90;;;;;;;23.28;40.01;99638.69;5112575;28;20031;-67
2022/05/12 03:26:10;;;;;;;1.45;0.90;;;;;;;23.27;39.86;99637.06;5112476;28;20130;-68
2022/05/12 03:28:37;;;;;;;1.10;0.70;;;;;;;23.28;40.18;99635.09;5112283;28;20105;-63
2022/05/12 03:31:02;;;;;;;1.48;1.00;;;;;;;23.30;39.85;99630.75;5112393;28;20044;-62
2022/05/12 03:33:28;;;;;;;1.38;0.82;;;;;;;23.28;39.95;99629.50;5112392;28;20036;-62
2022/05/12 03:35:53;;;;;;;1.38;0.90;;;;;;;23.28;40.01;99623.91;5112296;28;20060;-63
2022/05/12 03:38:20;;;;;;;1.15;0.80;;;;;;;23.25;39.95;99631.09;5112454;28;20039;-62
2022/05/12 03:40:46;;;;;;;1.52;0.90;;;;;;;23.24;40.13;99634.28;5112300;28;20055;-62
2022/05/12 03:44:46;;;;;;;1.42;0.80;;;;;;;23.25;40.13;99633.88;5112281;28;20559;-62
2022/05/12 03:45:58;;;;;;;1.05;0.73;;;;;;;23.24;39.87;99631.47;5111872;28;20043;-62
2022/05/12 03:48:23;;;;;;;1.35;0.88;;;;;;;23.26;40.05;99640.25;5111846;28;20058;-62
2022/05/12 03:50:50;;;;;;;2.33;0.80;;;;;;;23.19;40.33;99638.22;5111949;28;20054;-62
2022/05/12 03:53:15;;;;;;;1.63;0.93;;;;;;;23.21;39.90;99640.59;5112167;28;20105;-62
2022/05/12 03:55:40;;;;;;;1.38;0.82;;;;;;;23.19;40.29;99638.22;5112098;28;20445;-62
2022/05/12 03:58:06;;;;;;;1.52;0.80;;;;;;;23.22;39.98;99645.03;5112061;28;20046;-62
2022/05/12 04:00:32;;;;;;;1.13;0.70;;;;;;;23.19;40.03;99645.78;5111926;28;20441;-63
2022/05/12 04:02:57;;;;;;;1.35;0.98;;;;;;;23.18;39.89;99638.59;5111936;28;20384;-62
2022/05/12 04:05:23;;;;;;;1.65;0.93;;;;;;;23.19;40.10;99646.59;5111827;28;20078;-62
2022/05/12 04:07:51;;;;;;;1.75;0.85;;;;;;;23.19;40.13;99646.59;5111627;28;20040;-67
2022/05/12 04:10:16;;;;;;;0.77;0.60;;;;;;;23.14;39.98;99646.94;5111429;28;20050;-67
2022/05/12 04:12:41;;;;;;;2.22;1.00;;;;;;;23.17;40.23;99654.53;5111713;28;20056;-67
2022/05/12 04:15:08;;;;;;;1.20;0.80;;;;;;;23.12;40.27;99654.09;5111804;28;20553;-67
2022/05/12 04:17:34;;;;;;;1.75;0.90;;;;;;;23.14;40.12;99658.09;5111747;28;20407;-67
2022/05/12 04:20:05;;;;;;;1.30;0.90;;;;;;;23.15;40.16;99662.50;5111546;28;20051;-67
2022/05/12 04:22:30;;;;;;;1.30;0.80;;;;;;;23.17;40.12;99656.53;5111653;28;20066;-67
2022/05/12 04:24:56;;;;;;;1.08;0.80;;;;;;;23.14;40.14;99655.28;5111627;28;20422;-67
2022/05/12 04:27:21;;;;;;;1.60;0.90;;;;;;;23.11;40.16;99656.06;5111185;28;20048;-62
2022/05/12 04:29:47;;;;;;;1.33;0.85;;;;;;;23.12;40.33;99656.88;5111304;28;20063;-67
2022/05/12 04:32:13;;;;;;;1.08;0.80;;;;;;;23.10;40.37;99651.69;5111356;28;20036;-67
2022/05/12 04:37:30;;;;;;;1.50;1.00;;;;;;;23.10;40.32;99664.84;5111660;28;20050;-67
2022/05/12 04:40:03;;;;;;;1.10;0.80;;;;;;;23.10;40.43;99665.63;5108787;28;20048;-67
2022/05/12 04:42:28;;;;;;;1.15;0.70;;;;;;;23.12;40.62;99662.47;5111020;28;20086;-63
2022/05/12 04:44:54;;;;;;;1.13;0.80;;;;;;;23.13;40.44;99664.06;5111260;28;20131;-62
2022/05/12 04:47:19;;;;;;;1.10;0.80;;;;;;;23.13;40.68;99664.84;5110917;28;20052;-62
2022/05/12 04:49:45;;;;;;;1.20;0.90;;;;;;;23.15;40.72;99662.50;5111136;28;20036;-62
2022/05/12 04:52:10;;;;;;;1.80;0.90;;;;;;;23.13;40.45;99664.06;5111076;28;20078;-62
2022/05/12 04:54:35;;;;;;;1.00;0.80;;;;;;;23.12;40.77;99671.63;5111268;28;20139;-67
2022/05/12 04:57:01;;;;;;;1.30;0.93;;;;;;;23.11;40.83;99672.03;5111241;28;20426;-67
2022/05/12 04:59:26;;;;;;;1.45;0.80;;;;;;;23.13;41.05;99675.22;5111218;28;20396;-67
2022/05/12 05:01:52;;;;;;;1.67;0.90;;;;;;;23.11;40.80;99674.81;5110953;28;20126;-68
2022/05/12 05:04:17;;;;;;;1.27;0.80;;;;;;;23.16;40.96;99680.06;5110846;28;20036;-68
2022/05/12 05:06:42;;;;;;;1.33;0.90;;;;;;;23.16;41.05;99682.84;5110689;28;20495;-67
2022/05/12 05:09:08;;;;;;;1.70;1.00;;;;;;;23.14;41.11;99683.19;5110781;28;20123;-67
2022/05/12 05:11:37;;;;;;;1.33;0.90;;;;;;;23.14;41.20;99693.56;5110530;28;20530;-67
2022/05/12 05:14:03;;;;;;;1.58;0.90;;;;;;;23.12;41.03;99687.56;5110420;28;20040;-67
2022/05/12 05:16:29;;;;;;;1.63;1.05;;;;;;;23.16;41.03;99689.22;5110512;28;20462;-62
2022/05/12 05:18:54;;;;;;;1.48;1.00;;;;;;;23.19;41.10;99696.00;5110626;28;20047;-66
2022/05/12 05:21:20;;;;;;;1.70;1.13;;;;;;;23.17;41.17;99696.41;5109731;28;20117;-67
2022/05/12 05:23:45;;;;;;;1.52;0.90;;;;;;;23.14;41.34;99693.56;5110723;28;20040;-67
2022/05/12 05:26:11;;;;;;;1.92;1.10;;;;;;;23.14;41.50;99699.16;5110414;28;20101;-67
2022/05/12 05:28:37;;;;;;;1.90;1.02;;;;;;;23.15;41.38;99695.19;5110174;28;20511;-68
2022/05/12 05:31:04;;;;;;;1.42;1.00;;;;;;;23.13;41.23;99697.53;5110373;28;20052;-69
2022/05/12 05:33:30;;;;;;;1.90;1.00;;;;;;;23.16;41.48;99705.97;5110695;28;20050;-71
2022/05/12 05:35:57;;;;;;;1.70;0.95;;;;;;;23.18;41.64;99703.59;5110718;28;20039;-68
2022/05/12 05:38:23;;;;;;;1.60;0.90;;;;;;;23.18;41.64;99703.59;5110626;28;20051;-66
2022/05/12 05:40:48;;;;;;;2.25;1.20;;;;;;;23.18;41.69;99708.38;5110235;28;20119;-66
2022/05/12 05:43:14;;;;;;;1.42;0.98;;;;;;;23.18;41.59;99706.38;5110313;28;20126;-66
2022/05/12 05:45:40;;;;;;;1.58;1.00;;;;;;;23.19;41.64;99705.19;5110418;28;20048;-66
2022/05/12 05:48:06;;;;;;;1.88;1.00;;;;;;;23.18;41.58;99705.56;5110048;28;20047;-66
2022/05/12 05:53:23;;;;;;;4.47;1.10;;;;;;;23.19;41.58;99712.75;5110343;28;20047;-66
2022/05/12 05:53:24;;;;;;;1.73;1.00;;;;;;;23.19;41.59;99713.56;5110179;28;20427;-67
2022/05/12 05:55:50;;;;;;;2.20;1.15;;;;;;;23.18;41.53;99714.75;5110357;28;20050;-67
2022/05/12 05:58:15;;;;;;;2.55;1.20;;;;;;;23.19;41.39;99713.56;5110351;28;20036;-67
2022/05/12 06:00:43;;;;;;;2.00;1.05;;;;;;;23.16;41.45;99703.19;5110141;28;20040;-67
2022/05/12 06:03:09;;;;;;;1.80;1.10;;;;;;;23.19;41.46;99710.75;5109844;28;20104;-67
2022/05/12 06:05:36;;;;;;;3.97;1.05;;;;;;;23.18;41.47;99711.16;5109997;28;20393;-67
2022/05/12 06:08:02;;;;;;;1.88;1.20;;;;;;;23.20;41.50;99711.56;5109799;28;20130;-67
2022/05/12 06:10:28;;;;;;;2.28;1.15;;;;;;;23.21;41.41;99715.97;5109796;28;20043;-64
2022/05/12 06:12:54;;;;;;;1.40;0.90;;;;;;;23.19;41.43;99712.75;5091466;28;20043;-64
2022/05/12 06:15:20;;;;;;;1.40;0.93;;;;;;;23.22;41.34;99723.97;5110046;28;20043;-64
2022/05/12 06:17:46;;;;;;;1.95;1.00;;;;;;;23.23;41.46;99724.78;5109841;28;20048;-64
2022/05/12 06:20:11;;;;;;;1.83;1.00;;;;;;;23.25;41.46;99725.19;5109839;28;20040;-65
2022/05/12 06:22:37;;;;;;;2.13;1.13;;;;;;;23.23;41.46;99725.56;5109618;28;20048;-64
2022/05/12 06:25:07;;;;;;;2.15;0.98;;;;;;;23.26;41.43;99724.00;5109824;28;20044;-64
2022/05/12 06:27:33;;;;;;;2.15;1.00;;;;;;;23.27;41.32;99717.22;5109485;28;20073;-64
2022/05/12 06:29:58;;;;;;;1.50;0.90;;;;;;;23.28;41.25;99718.81;5109600;28;20076;-64
2022/05/12 06:32:26;;;;;;;1.50;1.00;;;;;;;23.28;41.42;99718.81;5109873;28;20134;-65
2022/05/12 06:34:52;;;;;;;2.00;1.20;;;;;;;23.25;41.31;99723.19;5113180;28;20092;-65
2022/05/12 06:37:17;;;;;;;1.58;1.10;;;;;;;23.30;41.36;99722.03;5113325;28;20405;-64
2022/05/12 06:39:42;;;;;;;1.92;1.00;;;;;;;23.30;41.16;99724.84;5113352;28;20050;-64
2022/05/12 06:42:08;;;;;;;1.70;1.10;;;;;;;23.31;41.26;99732.03;5113057;28;20036;-65
2022/05/12 06:44:34;;;;;;;1.73;1.00;;;;;;;23.29;41.31;99720.44;5113327;28;20460;-64
2022/05/12 06:47:01;;;;;;;1.55;1.00;;;;;;;23.29;41.17;99723.25;5113043;28;20387;-64
2022/05/12 06:49:28;;;;;;;1.30;0.88;;;;;;;23.32;41.25;99720.47;5112931;28;20047;-64
2022/05/12 06:51:55;;;;;;;1.45;1.00;;;;;;;23.35;41.29;99722.47;5122597;27;20051;-64
2022/05/12 06:54:21;;;;;;;2.10;1.05;;;;;;;23.37;41.15;99727.69;5109740;28;20127;-63
2022/05/12 06:56:46;;;;;;;5.07;1.10;;;;;;;23.40;41.07;99726.13;5113419;27;20039;-63
2022/05/12 06:59:12;;;;;;;2.50;1.30;;;;;;;23.38;41.21;99725.69;5113993;27;20076;-63
2022/05/12 07:01:37;;;;;;;5.35;1.10;;;;;;;23.40;41.12;99718.53;5112602;28;20523;-67
2022/05/12 07:04:03;;;;;;;1.20;0.95;;;;;;;23.39;41.30;99711.34;5115620;28;20050;-65
2022/05/12 07:06:29;;;;;;;4.43;1.50;;;;;;;23.35;41.32;99711.31;5116081;28;20095;-64
2022/05/12 07:08:56;;;;;;;2.67;0.98;;;;;;;23.40;41.55;99707.38;5110802;28;20051;-63
2022/05/12 07:11:21;;;;;;;2.92;1.10;;;;;;;23.42;41.50;99705.00;5100438;27;21881;-62
2022/05/12 07:13:48;;;;;;;2.28;1.30;;;;;;;23.45;41.72;99704.22;5089919;28;20050;-65
2022/05/12 07:16:13;;;;;;;2.80;0.90;;;;;;;23.48;41.91;99703.44;5104187;28;20047;-66
2022/05/12 07:18:39;;;;;;;2.85;1.00;;;;;;;23.52;41.63;99698.72;5103111;27;20062;-68
2022/05/12 07:26:40;;;;;;;2.08;1.10;;;;;;;23.54;41.52;99695.53;5104597;28;20445;-63
2022/05/12 07:29:14;;;;;;;1.58;0.90;;;;;;;23.53;41.45;99691.13;5103105;28;20066;-63
2022/05/12 07:31:39;;;;;;;3.13;1.08;;;;;;;23.52;41.36;99686.75;5101223;28;20055;-63
2022/05/12 07:34:05;;;;;;;1.52;1.00;;;;;;;23.53;41.42;99694.72;5113693;28;20047;-62
2022/05/12 07:36:34;;;;;;;1.50;1.00;;;;;;;23.53;41.37;99696.72;5109100;28;20494;-62
2022/05/12 07:39:00;;;;;;;2.45;1.13;;;;;;;23.55;41.16;99699.91;5109437;27;20975;-63
2022/05/12 07:41:27;;;;;;;2.83;1.27;;;;;;;23.55;41.24;99686.75;5107058;28;20047;-63
2022/05/12 07:43:54;;;;;;;1.63;1.00;;;;;;;23.53;41.17;99686.34;5097745;28;20055;-63
2022/05/12 07:46:23;;;;;;;1.60;1.00;;;;;;;23.57;41.17;99689.97;5099168;28;20043;-61
2022/05/12 07:48:49;;;;;;;1.60;0.93;;;;;;;23.60;41.18;99689.22;5103609;28;20051;-62
2022/05/12 07:51:17;;;;;;;3.20;1.10;;;;;;;23.72;41.01;99685.34;5100293;28;20047;-62
2022/05/12 07:53:46;;;;;;;5.32;1.70;;;;;;;23.84;40.68;99690.59;5087151;28;20105;-63
2022/05/12 07:56:12;;;;;;;5.32;2.20;;;;;;;23.92;40.43;99690.63;5104745;28;20096;-64
2022/05/12 07:58:38;;;;;;;4.35;1.90;;;;;;;23.96;40.35;99695.06;5105290;28;20051;-63
2022/05/12 08:01:05;;;;;;;5.43;1.90;;;;;;;23.97;40.27;99691.06;5106267;28;20046;-65
2022/05/12 08:03:30;;;;;;;6.30;2.22;;;;;;;24.00;40.31;99692.28;5103776;28;20132;-66
2022/05/12 08:05:58;;;;;;;5.07;1.90;;;;;;;23.98;40.08;99680.69;5099641;27;20052;-63
2022/05/12 08:08:24;;;;;;;9.63;1.90;;;;;;;24.02;40.07;99685.13;5103965;28;20116;-64
2022/05/12 08:10:49;;;;;;;3.88;1.60;;;;;;;24.01;40.02;99683.53;5106898;28;20637;-64
2022/05/12 08:13:16;;;;;;;4.15;2.03;;;;;;;24.02;40.11;99685.13;5099547;28;20043;-63
2022/05/12 08:15:46;;;;;;;6.40;2.22;;;;;;;23.91;39.86;99687.03;5102621;28;20060;-64
2022/05/12 08:18:16;;;;;;;7.18;2.38;;;;;;;23.80;40.02;99686.19;5106393;28;20050;-64
2022/05/12 08:20:44;;;;;;;6.03;2.22;;;;;;;23.72;40.26;99690.09;5102390;28;20137;-62
2022/05/12 08:23:10;;;;;;;6.88;2.25;;;;;;;23.71;40.59;99691.28;5098066;28;20062;-63
2022/05/12 08:25:35;;;;;;;7.25;2.20;;;;;;;23.71;40.74;99680.91;5102990;28;20047;-63
2022/05/12 08:28:01;;;;;;;4.03;1.88;;;;;;;23.72;40.62;99674.16;5101025;28;20484;-64
2022/05/12 08:30:26;;;;;;;6.82;1.75;;;;;;;23.73;40.88;99661.00;5104865;28;20053;-64
2022/05/12 08:32:52;;;;;;;4.85;1.92;;;;;;;23.74;40.81;99660.59;5102285;28;20130;-64
2022/05/12 08:35:17;;;;;;;4.13;1.75;;;;;;;23.74;40.87;99666.19;5106880;28;20039;-64
2022/05/12 08:37:43;;;;;;;4.55;1.70;;;;;;;23.76;41.08;99674.19;5111518;28;20049;-62
2022/05/12 08:40:21;;;;;;;4.10;1.40;;;;;;;23.78;41.24;99666.19;5104451;27;20050;-62
2022/05/12 08:42:47;;;;;;;3.65;1.98;;;;;;;23.82;41.71;99667.84;5100406;28;20604;-63
2022/05/12 08:45:17;;;;;;;3.67;1.40;;;;;;;23.81;41.35;99671.03;5100234;28;20063;-63
2022/05/12 08:47:47;;;;;;;3.25;1.58;;;;;;;23.84;41.33;99668.25;5104062;28;20181;-63
2022/05/12 08:50:24;;;;;;;3.85;1.65;;;;;;;23.83;41.24;99663.84;5099355;27;20035;-62
2022/05/12 08:52:57;;;;;;;5.78;1.35;;;;;;;23.86;41.18;99659.47;5098179;28;21644;-62
2022/05/12 08:55:30;;;;;;;3.28;1.40;;;;;;;23.86;41.29;99659.47;5106854;27;20051;-62
2022/05/12 08:58:01;;;;;;;3.53;1.40;;;;;;;23.86;41.22;99660.28;5099302;28;20831;-62
2022/05/12 09:00:33;;;;;;;2.50;1.25;;;;;;;23.89;41.28;99661.50;5104236;28;20062;-62
2022/05/12 09:03:31;;;;;;;3.10;1.58;;;;;;;23.90;41.10;99660.31;5103314;27;20047;-63
2022/05/12 09:06:17;;;;;;;2.88;1.50;;;;;;;23.92;41.26;99654.31;5103618;28;20055;-69
2022/05/12 09:08:58;;;;;;;2.63;1.30;;;;;;;23.89;41.07;99656.72;5098768;28;20047;-67
2022/05/12 09:11:52;;;;;;;2.10;1.30;;;;;;;23.90;40.96;99651.91;5103256;28;20056;-69
2022/05/12 09:14:41;;;;;;;4.40;1.30;;;;;;;23.91;41.04;99653.53;5096331;28;20032;-69
2022/05/12 09:17:09;;;;;;;2.00;1.27;;;;;;;23.92;41.04;99646.72;5101869;28;20051;-68
2022/05/12 09:19:35;;;;;;;2.38;1.33;;;;;;;23.92;40.94;99648.72;5103399;28;20541;-67
2022/05/12 09:22:01;;;;;;;3.83;1.38;;;;;;;23.92;40.80;99635.56;5101249;28;20547;-68
2022/05/12 09:24:26;;;;;;;2.22;1.10;;;;;;;23.94;40.76;99635.19;5100510;28;20042;-69
2022/05/12 09:27:06;;;;;;;2.05;1.10;;;;;;;23.93;40.86;99623.19;5102357;28;20788;-68
2022/05/12 09:29:31;;;;;;;2.00;1.10;;;;;;;23.95;40.51;99618.03;5101974;28;20400;-68
2022/05/12 09:32:15;;;;;;;2.08;1.17;;;;;;;23.98;40.86;99614.44;5099227;28;20564;-69
2022/05/12 09:34:46;;;;;;;2.95;1.20;;;;;;;24.01;40.63;99610.09;5102280;28;20043;-69
2022/05/12 09:37:20;;;;;;;1.50;1.10;;;;;;;24.01;40.69;99601.69;5102837;28;20400;-69
2022/05/12 09:39:48;;;;;;;1.73;1.00;;;;;;;24.03;40.47;99594.50;5105008;28;20089;-68
2022/05/12 09:42:41;;;;;;;4.55;1.10;;;;;;;24.04;40.64;99596.13;5112822;28;20039;-68
2022/05/12 09:45:22;;;;;;;2.08;1.00;;;;;;;24.04;40.75;99584.94;5107418;28;20067;-69
2022/05/12 09:47:50;;;;;;;2.75;1.10;;;;;;;24.07;40.59;99586.94;5099659;28;20051;-61
2022/05/12 09:50:25;;;;;;;3.00;1.10;;;;;;;24.07;40.61;99584.13;5099929;28;20043;-63
2022/05/12 09:52:53;;;;;;;2.25;1.25;;;;;;;24.07;40.57;99580.53;5099865;28;20488;-63
2022/05/12 09:55:24;;;;;;;2.17;1.13;;;;;;;24.09;40.62;99587.34;5098160;28;20357;-63
2022/05/12 09:57:58;;;;;;;2.28;1.17;;;;;;;24.09;40.74;99590.16;5101829;28;20096;-64
2022/05/12 10:00:34;;;;;;;2.83;1.30;;;;;;;24.16;40.89;99578.22;5099659;28;20496;-64
2022/05/12 10:09:28;;;;;;;2.33;1.10;;;;;;;24.15;41.11;99571.03;5103076;28;20415;-63
2022/05/12 10:12:06;;;;;;;2.63;1.10;;;;;;;24.14;41.11;99574.97;5086164;28;20559;-63
2022/05/12 10:14:39;;;;;;;1.90;1.10;;;;;;;24.13;40.87;99574.19;5095993;28;20044;-63
2022/05/12 10:17:24;;;;;;;2.22;1.05;;;;;;;24.15;41.03;99560.63;5100478;28;20138;-65
2022/05/12 10:19:50;;;;;;;2.78;1.13;;;;;;;24.16;41.00;99570.63;5098210;27;20046;-64
2022/05/12 10:22:22;;;;;;;3.03;1.05;;;;;;;24.14;41.08;99556.22;5107432;27;20035;-64
2022/05/12 10:25:22;;;;;;;4.45;1.27;;;;;;;24.16;41.03;99561.44;5112538;28;21040;-64
2022/05/12 10:28:15;;;;;;;2.00;1.10;;;;;;;24.12;41.16;99547.44;5104748;28;20051;-64
2022/05/12 10:30:56;;;;;;;2.13;1.10;;;;;;;24.14;41.03;99547.03;5119603;28;20040;-68
2022/05/12 10:33:32;;;;;;;1.60;1.05;;;;;;;24.20;41.19;99536.28;5111008;27;20055;-69
2022/05/12 10:36:29;;;;;;;3.47;0.98;;;;;;;24.20;41.05;99537.06;5122158;28;20409;-68
2022/05/12 10:39:06;;;;;;;2.38;1.10;;;;;;;24.19;41.09;99529.88;5122277;27;20047;-68
2022/05/12 10:41:42;;;;;;;1.40;1.00;;;;;;;24.19;40.74;99523.50;5119538;27;20050;-68
2022/05/12 10:44:23;;;;;;;3.35;1.20;;;;;;;24.22;40.80;99517.09;5122989;28;20063;-66
2022/05/12 10:46:57;;;;;;;4.72;1.10;;;;;;;24.25;41.06;99527.50;5122587;28;20051;-66
2022/05/12 10:49:41;;;;;;;3.53;1.10;;;;;;;24.24;41.08;99521.13;5086004;28;20559;-67
2022/05/12 10:52:49;;;;;;;1.85;1.10;;;;;;;24.29;40.92;99514.34;5117529;28;20039;-68
2022/05/12 10:55:43;;;;;;;6.57;1.27;;;;;;;24.31;40.94;99509.16;5116832;27;20563;-68
2022/05/12 10:58:34;;;;;;;5.25;1.20;;;;;;;24.31;40.76;99514.75;5123979;28;20503;-69
2022/05/12 11:01:25;;;;;;;4.10;1.20;;;;;;;24.30;40.86;99499.19;5115272;28;20044;-68
2022/05/12 11:03:59;;;;;;;5.15;0.98;;;;;;;24.31;40.83;99500.78;5094308;28;20510;-70
2022/05/12 11:06:31;;;;;;;4.03;1.30;;;;;;;24.46;40.74;99490.44;5121405;27;20040;-67
2022/05/12 11:09:06;;;;;;;2.78;1.05;;;;;;;24.51;40.45;99490.06;5121469;28;20047;-70
2022/05/12 11:11:38;;;;;;;3.40;1.30;;;;;;;24.52;40.75;99486.84;5115907;28;20070;-69
2022/05/12 11:14:07;;;;;;;;;;;;;;;24.56;40.66;99482.06;5122201;28;20080;-69
2022/05/12 11:16:55;;;;;;;3.58;1.20;;;;;;;24.53;40.62;99480.06;5114163;28;19969;-69
2022/05/12 11:19:24;;;;;;;3.20;1.10;;;;;;;24.55;40.75;99472.06;5094663;28;20058;-69
2022/05/12 11:22:07;;;;;;;3.72;1.17;;;;;;;24.59;40.63;99472.88;5114213;28;20043;-69
2022/05/12 11:24:42;;;;;;;5.75;1.13;;;;;;;24.61;40.59;99470.47;5115315;28;20047;-69
2022/05/12 11:27:39;;;;;;;1.90;1.20;;;;;;;24.64;40.65;99466.88;5115465;28;20048;-69
2022/05/12 11:30:29;;;;;;;3.05;1.20;;;;;;;24.68;40.98;99464.09;5037690;28;20905;-68
2022/05/12 11:33:06;;;;;;;2.30;1.13;;;;;;;24.65;40.84;99457.31;5037358;28;20049;-67
2022/05/12 11:35:38;;;;;;;3.85;1.17;;;;;;;24.77;40.97;99452.47;5036100;28;20125;-67
2022/05/12 11:38:07;;;;;;;2.97;1.10;;;;;;;24.79;41.20;99447.28;5025679;28;20143;-73
2022/05/12 11:40:43;;;;;;;3.72;1.20;;;;;;;24.78;41.19;99438.09;5040604;28;20050;-72
2022/05/12 11:46:46;;;;;;;2.42;1.30;;;;;;;24.79;41.39;99438.88;5044036;28;20468;-68
2022/05/12 11:49:20;;;;;;;2.72;1.30;;;;;;;24.80;41.29;99432.13;5035211;28;20049;-70
2022/05/12 11:52:04;;;;;;;2.28;1.00;;;;;;;24.79;41.50;99427.69;5031991;28;20057;-69
2022/05/12 11:54:39;;;;;;;1.75;1.10;;;;;;;24.81;41.57;99430.91;5035913;28;20040;-69
2022/05/12 11:57:28;;;;;;;6.25;1.30;;;;;;;24.63;41.83;99422.53;5038542;28;20045;-69
2022/05/12 11:59:56;;;;;;;3.50;0.95;;;;;;;24.72;41.81;99422.94;5031993;28;20037;-65
2022/05/12 12:02:33;;;;;;;12.55;1.77;;;;;;;24.76;41.89;99423.72;5032696;28;20127;-65